Celebrity Solstice — 9HRJ9 — position and weather

sailwx.info

Track history (hours):
 
Tides and Currents Weather Stations Pressure Air Temp Water Temp Dewpoint Dewpoint Depression Visibility Wind Speed Wind Dir Waves Ship Positions

Celebrity Solstice

Last reported at 2017-May-25 10:30 UTC. Time now 2017-May-25 10:36 UTC.
Position N 48°52' W 126°07'.

Length 316 m; draft 9 m.

Type: Ship. MMSI: 249409000.

Date/timePositionNaut miles runAvg speedWind from/ knotsBaromVisibWave heightAir tempDewpointWater temp
2017-May-25 10:30N 48°52' W 126°07'917.9
2017-May-25 10:00N 48°57' W 126°17'5309.9
2017-May-25 10:00N 49°00' W 126°24'611.9 340 / 141015.0 5.4 15.0 12.0
2017-May-25 09:30N 49°04' W 126°30'1121.4
2017-May-25 09:00N 49°11' W 126°43'1020.9
2017-May-25 08:30N 49°17' W 126°55'1021.0
2017-May-25 08:00N 49°24' W 127°08'1121.0
2017-May-25 07:30N 49°30' W 127°21'21120.0
2017-May-24 21:00N 51°54' W 131°24'31716.7 320 / 361026.0 2.2 10.0 10.0
2017-May-24 02:00N 56°36' W 135°30'47 3.1 310 / 301019.0 8.6 1.211.3
2017-May-23 11:00N 57°12' W 136°24'82 3.4 350 / 141013.0 2.2 8.0 10.0
2017-May-22 11:00N 58°24' W 137°36'1413.9 160 / 121010.0 2.2 10.0 10.0
2017-May-22 10:00N 58°18' W 137°12'5418.0 180 / 171010.0 5.4 10.0 10.0
2017-May-22 07:00N 58°12' W 135°30'43 2.2 170 / 21 5.4 11.0
2017-May-21 11:00N 58°54' W 135°12'178 6.4 210 / 31011.0 1.1 5.0 10.0
2017-May-20 07:00N 56°00' W 134°00'136 6.5 190 / 9 10.8 10.0
2017-May-19 10:00N 54°24' W 131°12'19817.2 120 / 211020.0 5.4 10.0 17.0
2017-May-18 22:29N 51°20' W 129°14'917.9
2017-May-18 22:00N 51°17' W 129°01'917.6
2017-May-18 21:31N 51°14' W 128°48'1017.4
2017-May-18 20:55N 51°10' W 128°32'717.0
2017-May-18 20:31N 51°07' W 128°22'917.1
2017-May-18 20:00N 51°04' W 128°09'817.5
2017-May-18 19:31N 51°01' W 127°57'3422.3
2017-May-18 18:00N 50°42' W 127°12'10 9.8 050 / 9 27.0 11.0
2017-May-18 16:55N 50°42' W 126°55'1119.9
2017-May-18 16:22N 50°35' W 126°42'5222.1
2017-May-18 14:00N 50°18' W 125°24'310.7 120 / 141022.0 11.9-1.313.3
2017-May-18 13:42N 50°20' W 125°27'314.1
2017-May-18 13:30N 50°18' W 125°25'917.9
2017-May-18 13:01N 50°10' W 125°21'611.7
2017-May-18 12:30N 50°05' W 125°16'510.8
2017-May-18 12:00N 50°00' W 125°12'014.9
2017-May-18 12:00N 50°00' W 125°12'5 9.9 130 / 121017.0 12.1-3.114.3
2017-May-18 11:30N 49°56' W 125°07'510.2
2017-May-18 11:00N 49°53' W 125°02'7432.3
2017-May-18 11:00N 49°48' W 124°54'2 3.8 140 / 111010.0 5.4 15.0 14.0
2017-May-18 10:30N 49°49' W 124°56'5 9.9
2017-May-18 10:00N 49°46' W 124°51'510.2
2017-May-18 09:30N 49°42' W 124°45'510.1
2017-May-18 09:00N 49°38' W 124°40'9565.8
2017-May-18 09:00N 49°30' W 124°36'4 8.0 150 / 121016.0 2.2 11.0 14.0
2017-May-18 08:27N 49°34' W 124°34'510.0
2017-May-18 08:00N 49°31' W 124°30'5 9.9
2017-May-18 07:30N 49°27' W 124°24'1510.0
2017-May-18 06:01N 49°23' W 124°03'5210.1
2017-May-18 06:00N 49°18' W 124°06'558.6 2.2
2017-May-18 05:54N 49°22' W 124°01'410.1
2017-May-18 05:30N 49°21' W 123°55'510.1
2017-May-18 04:58N 49°20' W 123°47'510.0
2017-May-18 04:30N 49°19' W 123°40'510.1
2017-May-18 04:00N 49°19' W 123°32'510.2
2017-May-18 03:30N 49°19' W 123°25'510.1
2017-May-18 03:00N 49°19' W 123°17'510.4
2017-May-18 02:30N 49°19' W 123°09'2 4.5
2017-May-18 02:00N 49°17' W 123°06'0 0.3
2017-May-18 01:27N 49°17' W 123°07'0 0.0
2017-May-18 00:57N 49°17' W 123°07'0 0.0
2017-May-18 00:27N 49°17' W 123°07'0 0.0
2017-May-17 23:57N 49°17' W 123°07'0 0.0
2017-May-17 23:27N 49°17' W 123°07'0 0.0
2017-May-17 22:57N 49°17' W 123°07'0 0.0
2017-May-17 22:27N 49°17' W 123°07'0 0.0
2017-May-17 21:57N 49°17' W 123°07'0 0.0
2017-May-17 21:27N 49°17' W 123°07'0 0.0
2017-May-17 20:57N 49°17' W 123°07'0 0.0
2017-May-17 20:27N 49°17' W 123°07'0 0.0
2017-May-17 19:57N 49°17' W 123°07'0 0.0
2017-May-17 19:27N 49°17' W 123°07'0 0.0
2017-May-17 17:03N 49°17' W 123°07'0 0.0
2017-May-17 15:57N 49°17' W 123°07'0 0.0
2017-May-17 15:27N 49°17' W 123°07'0 0.0
2017-May-17 13:30N 49°17' W 123°07'0 0.3
2017-May-17 13:00N 49°17' W 123°06'2 4.4
2017-May-17 12:30N 49°19' W 123°09'510.8
2017-May-17 12:00N 49°18' W 123°17'611.9
2017-May-17 11:30N 49°12' W 123°20'612.3
2017-May-17 11:00N 49°06' W 123°20'611.0
2017-May-17 10:28N 49°01' W 123°16'611.9
2017-May-17 09:59N 48°57' W 123°09'612.0
2017-May-17 09:30N 48°53' W 123°03'1121.7
2017-May-17 09:00N 48°42' W 123°00'5564.6 150 / 281006.0 5.4 11.0 14.0
2017-May-17 08:59N 48°47' W 122°60'611.6
2017-May-17 08:30N 48°44' W 123°06'611.1
2017-May-17 08:00N 48°42' W 123°14'612.7
2017-May-17 07:30N 48°36' W 123°13'714.5
2017-May-17 07:01N 48°29' W 123°10'611.5
2017-May-17 06:30N 48°23' W 123°14'713.4
2017-May-17 06:00N 48°22' W 123°24'714.1
2017-May-17 05:30N 48°15' W 123°28'714.0
2017-May-17 05:00N 48°14' W 123°38'714.9
2017-May-17 04:30N 48°13' W 123°49'714.4
2017-May-17 04:00N 48°15' W 123°60'714.8
2017-May-17 03:30N 48°18' W 124°10'714.7
2017-May-17 03:00N 48°21' W 124°20'714.9
2017-May-17 02:30N 48°24' W 124°30'714.9
2017-May-17 02:00N 48°27' W 124°40'714.6
2017-May-17 01:30N 48°28' W 124°51'815.7
2017-May-17 00:59N 48°28' W 125°04'816.8
2017-May-17 00:30N 48°25' W 125°15'816.2
2017-May-17 00:00N 48°22' W 125°26'815.6
2017-May-16 23:30N 48°18' W 125°36'815.7
2017-May-16 22:58N 48°14' W 125°47'1919.4
2017-May-16 22:00N 48°00' W 126°06'2713.5 310 / 381008.0 2.2 17.0 17.0
2017-May-16 20:00N 47°42' W 126°36'16016.0 310 / 451007.0 5.4 12.0 10.0
2017-May-16 10:00N 46°00' W 129°36'4611.4 330 / 341012.0 5.4 15.0 16.0
2017-May-16 06:00N 45°42' W 130°36'6622.0 280 / 30 0.5 10.0
2017-May-16 03:00N 44°48' W 131°30'   290 / 351013.9 5.4 10.6 12.2
Track history (hours):
 
Tides and Currents Weather Stations Pressure Air Temp Water Temp Dewpoint Dewpoint Depression Visibility Wind Speed Wind Dir Waves Ship Positions

Celebrity Solstice

Last reported at 2017-May-25 10:30 UTC. Time now 2017-May-25 10:36 UTC.
Position N 48°52' W 126°07'.

Length 316 m; draft 9 m.

Type: Ship. MMSI: 249409000.

Date/timePositionNaut miles runAvg speedWind from/ knotsBaromVisibWave heightAir tempDewpointWater temp
2017-May-25 10:30N 48°52' W 126°07'917.9
2017-May-25 10:00N 48°57' W 126°17'5309.9
2017-May-25 10:00N 49°00' W 126°24'611.9 340 / 141015.0 5.4 15.0 12.0
2017-May-25 09:30N 49°04' W 126°30'1121.4
2017-May-25 09:00N 49°11' W 126°43'1020.9
2017-May-25 08:30N 49°17' W 126°55'1021.0
2017-May-25 08:00N 49°24' W 127°08'1121.0
2017-May-25 07:30N 49°30' W 127°21'21120.0
2017-May-24 21:00N 51°54' W 131°24'31716.7 320 / 361026.0 2.2 10.0 10.0
2017-May-24 02:00N 56°36' W 135°30'47 3.1 310 / 301019.0 8.6 1.211.3
2017-May-23 11:00N 57°12' W 136°24'82 3.4 350 / 141013.0 2.2 8.0 10.0
2017-May-22 11:00N 58°24' W 137°36'1413.9 160 / 121010.0 2.2 10.0 10.0
2017-May-22 10:00N 58°18' W 137°12'5418.0 180 / 171010.0 5.4 10.0 10.0
2017-May-22 07:00N 58°12' W 135°30'43 2.2 170 / 21 5.4 11.0
2017-May-21 11:00N 58°54' W 135°12'178 6.4 210 / 31011.0 1.1 5.0 10.0
2017-May-20 07:00N 56°00' W 134°00'136 6.5 190 / 9 10.8 10.0
2017-May-19 10:00N 54°24' W 131°12'19817.2 120 / 211020.0 5.4 10.0 17.0
2017-May-18 22:29N 51°20' W 129°14'917.9
2017-May-18 22:00N 51°17' W 129°01'917.6
2017-May-18 21:31N 51°14' W 128°48'1017.4
2017-May-18 20:55N 51°10' W 128°32'717.0
2017-May-18 20:31N 51°07' W 128°22'917.1
2017-May-18 20:00N 51°04' W 128°09'817.5
2017-May-18 19:31N 51°01' W 127°57'3422.3
2017-May-18 18:00N 50°42' W 127°12'10 9.8 050 / 9 27.0 11.0
2017-May-18 16:55N 50°42' W 126°55'1119.9
2017-May-18 16:22N 50°35' W 126°42'5222.1
2017-May-18 14:00N 50°18' W 125°24'310.7 120 / 141022.0 11.9-1.313.3
2017-May-18 13:42N 50°20' W 125°27'314.1
2017-May-18 13:30N 50°18' W 125°25'917.9
2017-May-18 13:01N 50°10' W 125°21'611.7
2017-May-18 12:30N 50°05' W 125°16'510.8
2017-May-18 12:00N 50°00' W 125°12'014.9
2017-May-18 12:00N 50°00' W 125°12'5 9.9 130 / 121017.0 12.1-3.114.3
2017-May-18 11:30N 49°56' W 125°07'510.2
2017-May-18 11:00N 49°53' W 125°02'7432.3
2017-May-18 11:00N 49°48' W 124°54'2 3.8 140 / 111010.0 5.4 15.0 14.0
2017-May-18 10:30N 49°49' W 124°56'5 9.9
2017-May-18 10:00N 49°46' W 124°51'510.2
2017-May-18 09:30N 49°42' W 124°45'510.1
2017-May-18 09:00N 49°38' W 124°40'9565.8
2017-May-18 09:00N 49°30' W 124°36'4 8.0 150 / 121016.0 2.2 11.0 14.0
2017-May-18 08:27N 49°34' W 124°34'510.0
2017-May-18 08:00N 49°31' W 124°30'5 9.9
2017-May-18 07:30N 49°27' W 124°24'1510.0
2017-May-18 06:01N 49°23' W 124°03'5210.1
2017-May-18 06:00N 49°18' W 124°06'558.6 2.2
2017-May-18 05:54N 49°22' W 124°01'410.1
2017-May-18 05:30N 49°21' W 123°55'510.1
2017-May-18 04:58N 49°20' W 123°47'510.0
2017-May-18 04:30N 49°19' W 123°40'510.1
2017-May-18 04:00N 49°19' W 123°32'510.2
2017-May-18 03:30N 49°19' W 123°25'510.1
2017-May-18 03:00N 49°19' W 123°17'510.4
2017-May-18 02:30N 49°19' W 123°09'2 4.5
2017-May-18 02:00N 49°17' W 123°06'0 0.3
2017-May-18 01:27N 49°17' W 123°07'0 0.0
2017-May-18 00:57N 49°17' W 123°07'0 0.0
2017-May-18 00:27N 49°17' W 123°07'0 0.0
2017-May-17 23:57N 49°17' W 123°07'0 0.0
2017-May-17 23:27N 49°17' W 123°07'0 0.0
2017-May-17 22:57N 49°17' W 123°07'0 0.0
2017-May-17 22:27N 49°17' W 123°07'0 0.0
2017-May-17 21:57N 49°17' W 123°07'0 0.0
2017-May-17 21:27N 49°17' W 123°07'0 0.0
2017-May-17 20:57N 49°17' W 123°07'0 0.0
2017-May-17 20:27N 49°17' W 123°07'0 0.0
2017-May-17 19:57N 49°17' W 123°07'0 0.0
2017-May-17 19:27N 49°17' W 123°07'0 0.0
2017-May-17 17:03N 49°17' W 123°07'0 0.0
2017-May-17 15:57N 49°17' W 123°07'0 0.0
2017-May-17 15:27N 49°17' W 123°07'0 0.0
2017-May-17 13:30N 49°17' W 123°07'0 0.3
2017-May-17 13:00N 49°17' W 123°06'2 4.4
2017-May-17 12:30N 49°19' W 123°09'510.8
2017-May-17 12:00N 49°18' W 123°17'611.9
2017-May-17 11:30N 49°12' W 123°20'612.3
2017-May-17 11:00N 49°06' W 123°20'611.0
2017-May-17 10:28N 49°01' W 123°16'611.9
2017-May-17 09:59N 48°57' W 123°09'612.0
2017-May-17 09:30N 48°53' W 123°03'1121.7
2017-May-17 09:00N 48°42' W 123°00'5564.6 150 / 281006.0 5.4 11.0 14.0
2017-May-17 08:59N 48°47' W 122°60'611.6
2017-May-17 08:30N 48°44' W 123°06'611.1
2017-May-17 08:00N 48°42' W 123°14'612.7
2017-May-17 07:30N 48°36' W 123°13'714.5
2017-May-17 07:01N 48°29' W 123°10'611.5
2017-May-17 06:30N 48°23' W 123°14'713.4
2017-May-17 06:00N 48°22' W 123°24'714.1
2017-May-17 05:30N 48°15' W 123°28'714.0
2017-May-17 05:00N 48°14' W 123°38'714.9
2017-May-17 04:30N 48°13' W 123°49'714.4
2017-May-17 04:00N 48°15' W 123°60'714.8
2017-May-17 03:30N 48°18' W 124°10'714.7
2017-May-17 03:00N 48°21' W 124°20'714.9
2017-May-17 02:30N 48°24' W 124°30'714.9
2017-May-17 02:00N 48°27' W 124°40'714.6
2017-May-17 01:30N 48°28' W 124°51'815.7
2017-May-17 00:59N 48°28' W 125°04'816.8
2017-May-17 00:30N 48°25' W 125°15'816.2
2017-May-17 00:00N 48°22' W 125°26'815.6
2017-May-16 23:30N 48°18' W 125°36'815.7
2017-May-16 22:58N 48°14' W 125°47'1919.4
2017-May-16 22:00N 48°00' W 126°06'2713.5 310 / 381008.0 2.2 17.0 17.0
2017-May-16 20:00N 47°42' W 126°36'16016.0 310 / 451007.0 5.4 12.0 10.0
2017-May-16 10:00N 46°00' W 129°36'4611.4 330 / 341012.0 5.4 15.0 16.0
2017-May-16 06:00N 45°42' W 130°36'6622.0 280 / 30 0.5 10.0
2017-May-16 03:00N 44°48' W 131°30'   290 / 351013.9 5.4 10.6 12.2

Dump ship's entire track history